Impacts TAF Board
For situational awareness. Not to be used for flight planning purposes.
IDs:

KTPA - Tampa Intl Arpt, FL, US

Issued at 0301 UTC 12 Dec 2018
Updated at 0343 UTC 12 Dec 2018
Potential Impact None Slight Moderate High
Time0253Z 12/04Z 12/05Z 12/06Z 12/07Z 12/08Z 12/09Z 12/10Z 12/11Z 12/12Z 12/13Z 12/14Z 12/15Z 12/16Z>>
Type OBS PRVL PRVL PRVL PRVL PRVL PRVL PRVL PRVL PRVL PRVL PRVL PRVL PRVL
VIS 10 >6 >6 >6 >6 >6 >6 >6 >6 >6 >6 >6 >6 >6
CIG -- -- -- -- -- -- -- -- -- -- -- -- -- --
Cover CLR SKC SKC SKC SKC SKC SKC SKC SKC SKC SKC SKC SKC SKC
FltCat VFR VFR VFR VFR VFR VFR VFR VFR VFR VFR VFR VFR VFR VFR
WX -- -- -- -- -- -- -- -- -- -- -- -- -- --
WDir 360 360 30 30 30 30 30 30 30 30 30 90 90 90
WSpd 5 5 3 3 3 3 3 3 3 3 3 6 6 6
WGst -- -- -- -- -- -- -- -- -- -- -- -- -- --
Raw TAF
KTPA 120301Z 1203/1306 36005KT P6SM SKC
  FM120500 03003KT P6SM SKC
  FM121400 09006KT P6SM SKC
  FM122000 24006KT P6SM FEW250


Raw METAR
KTPA 120253Z 36005KT 10SM CLR 09/07 A3034 RMK AO2 SLP273 T00940067 53012
KTPA 120153Z 36003KT 10SM CLR 09/06 A3032 RMK AO2 SLP268 T00890061
KTPA 120053Z 34004KT 10SM CLR 09/06 A3032 RMK AO2 SLP266 T00940061

METAR Board
Radar Display
Forecast Discussion
For situational awareness. Not to be used for flight planning purposes.